Time;durP1;ratioP1;P1;durP2;ratioP2;P2;SDS_P1;SDS_P2;PMS_P1;PMS_P2;Temp;Humidity;BMP_temperature;BMP_pressure;BME280_temperature;BME280_humidity;BME280_pressure;Samples;Min_cycle;Max_cycle;Signal;HPM_P1;HPM_P2
2020/12/15 00:01:57;;;;;;;;;;;;;;;-1.01;86.42;100389.00;1668851;83;20271;-78
2020/12/15 00:04:28;;;;;;;;;;;;;;;-1.03;86.41;100394.53;1669245;86;20187;-78
2020/12/15 00:06:56;;;;;;;;;;;;;;;-1.02;86.49;100392.19;1668596;83;20520;-78
2020/12/15 00:09:24;;;;;;;;;;;;;;;-1.01;86.50;100392.50;1647872;85;20212;-79
2020/12/15 00:11:52;;;;;;;;;;;;;;;-1.01;86.47;100393.84;1688716;83;20217;-76
2020/12/15 00:14:19;;;;;;;;;;;;;;;-1.01;86.48;100385.78;1674299;83;20224;-80
2020/12/15 00:16:47;;;;;;;;;;;;;;;-1.00;86.52;100400.91;1674473;86;20172;-79
2020/12/15 00:19:14;;;;;;;;;;;;;;;-1.00;86.57;100395.53;1673777;83;20192;-78
2020/12/15 00:21:42;;;;;;;;;;;;;;;-1.01;86.56;100393.84;1674364;86;20235;-78
2020/12/15 00:24:10;;;;;;;;;;;;;;;-1.01;86.61;100393.84;1674201;83;20192;-80
2020/12/15 00:26:38;;;;;;;;;;;;;;;-0.98;86.55;100405.60;1675727;86;20527;-78
2020/12/15 00:29:05;;;;;;;;;;;;;;;-0.96;86.55;100398.20;1674749;83;20530;-78
2020/12/15 00:31:34;;;;;;;;;;;;;;;-0.96;86.63;100392.02;1674907;86;20188;-79
2020/12/15 00:34:03;;;;;;;;;;;;;;;-0.95;86.62;100389.14;1675899;83;20521;-78
2020/12/15 00:36:30;;;;;;;;;;;;;;;-0.94;86.58;100395.36;1674643;85;20573;-77
2020/12/15 00:38:58;;;;;;;;;;;;;;;-0.96;86.56;100387.45;1675984;83;20240;-78
2020/12/15 00:41:26;;;;;;;;;;;;;;;-0.97;86.60;100391.17;1674403;86;20234;-79
2020/12/15 00:43:54;;;;;;;;;;;;;;;-0.96;86.72;100387.98;1674991;83;20200;-79
2020/12/15 00:46:21;;;;;;;;;;;;;;;-0.97;86.62;100388.48;1674495;86;20504;-77
2020/12/15 00:48:49;;;;;;;;;;;;;;;-0.96;86.63;100383.42;1674453;86;20517;-77
2020/12/15 00:51:18;;;;;;;;;;;;;;;-0.96;86.54;100388.80;1673839;83;20191;-79
2020/12/15 00:53:46;;;;;;;;;;;;;;;-0.96;86.55;100378.58;1674419;86;20248;-84
2020/12/15 00:56:15;;;;;;;;;;;;;;;-0.98;86.54;100386.80;1682475;83;20212;-77
2020/12/15 00:58:43;;;;;;;;;;;;;;;-0.99;86.50;100386.48;1683149;84;20221;-78
2020/12/15 01:01:12;;;;;;;;;;;;;;;-0.99;86.61;100391.01;1699827;83;20193;-80
2020/12/15 01:03:41;;;;;;;;;;;;;;;-0.99;86.63;100390.52;1701273;84;20245;-79
2020/12/15 01:06:10;;;;;;;;;;;;;;;-1.00;86.52;100390.16;1730470;81;20241;-79
2020/12/15 01:08:40;;;;;;;;;;;;;;;-1.00;86.65;100390.16;1740558;82;20186;-80
2020/12/15 01:11:09;;;;;;;;;;;;;;;-1.00;86.66;100390.66;1725933;81;20338;-80
2020/12/15 01:13:37;;;;;;;;;;;;;;;-0.98;86.67;100389.48;1710877;84;20275;-79
2020/12/15 01:16:05;;;;;;;;;;;;;;;-0.96;86.61;100391.48;1711266;81;20604;-78
2020/12/15 01:18:36;;;;;;;;;;;;;;;-0.96;86.51;100396.86;1711489;84;20216;-83
2020/12/15 01:21:05;;;;;;;;;;;;;;;-0.94;86.59;100400.73;1685538;81;20262;-79
2020/12/15 01:23:32;;;;;;;;;;;;;;;-0.94;86.35;100396.20;1710814;84;20596;-79
2020/12/15 01:26:02;;;;;;;;;;;;;;;-0.96;86.39;100396.86;1686669;83;20243;-79
2020/12/15 01:28:33;;;;;;;;;;;;;;;-0.95;86.52;100397.20;1679411;85;20322;-78
2020/12/15 01:31:02;;;;;;;;;;;;;;;-0.94;86.55;100401.58;1653370;85;20183;-78
2020/12/15 01:33:31;;;;;;;;;;;;;;;-0.91;86.51;100405.77;1704855;83;20635;-80
2020/12/15 01:36:01;;;;;;;;;;;;;;;-0.90;86.33;100403.40;1689751;84;20263;-78
2020/12/15 01:38:37;;;;;;;;;;;;;;;-0.86;86.29;100403.41;1682031;83;20529;-76
2020/12/15 01:41:05;;;;;;;;;;;;;;;-0.85;86.18;100407.26;1679943;85;20183;-77
2020/12/15 01:43:34;;;;;;;;;;;;;;;-0.84;86.22;100414.32;1678873;83;20223;-76
2020/12/15 01:46:02;;;;;;;;;;;;;;;-0.82;86.14;100409.61;1679918;85;20519;-77
2020/12/15 01:48:31;;;;;;;;;;;;;;;-0.79;86.19;100409.27;1679368;83;20241;-77
2020/12/15 01:50:59;;;;;;;;;;;;;;;-0.76;86.06;100407.55;1679522;85;20203;-77
2020/12/15 01:53:27;;;;;;;;;;;;;;;-0.76;86.01;100405.40;1678868;83;20235;-75
2020/12/15 01:55:56;;;;;;;;;;;;;;;-0.77;86.10;100403.21;1655685;84;20335;-76
2020/12/15 01:58:24;;;;;;;;;;;;;;;-0.78;86.12;100402.02;1698882;84;20217;-76
2020/12/15 02:00:53;;;;;;;;;;;;;;;-0.78;86.12;100395.30;1681910;84;20219;-76
2020/12/15 02:03:21;;;;;;;;;;;;;;;-0.79;86.08;100395.83;1699927;83;20193;-75
2020/12/15 02:06:09;;;;;;;;;;;;;;;-0.82;86.13;100392.64;1639096;87;20187;-76
2020/12/15 02:08:38;;;;;;;;;;;;;;;-0.83;86.18;100402.55;1637815;85;20178;-77
2020/12/15 02:11:06;;;;;;;;;;;;;;;-0.86;86.10;100402.87;1671829;84;20253;-75
2020/12/15 02:13:36;;;;;;;;;;;;;;;-0.88;86.05;100404.06;1700913;84;20185;-76
2020/12/15 02:16:10;;;;;;;;;;;;;;;-0.93;86.10;100399.20;1645114;84;20217;-75
2020/12/15 02:18:41;;;;;;;;;;;;;;;-0.95;86.34;100405.77;1674283;86;20172;-75
2020/12/15 02:21:10;;;;;;;;;;;;;;;-0.97;86.42;100393.86;1673771;84;20192;-75
2020/12/15 02:23:39;;;;;;;;;;;;;;;-0.98;86.48;100393.52;1673666;85;20200;-76
2020/12/15 02:26:09;;;;;;;;;;;;;;;-0.97;86.49;100399.23;1672413;83;20183;-78
2020/12/15 02:28:38;;;;;;;;;;;;;;;-0.96;86.57;100394.17;1674542;86;20175;-76
2020/12/15 02:31:06;;;;;;;;;;;;;;;-0.93;86.75;100396.52;1708613;83;20246;-76
2020/12/15 02:33:42;;;;;;;;;;;;;;;-0.87;86.70;100400.38;1731521;83;20242;-75
2020/12/15 02:36:10;;;;;;;;;;;;;;;-0.88;86.39;100391.47;1702330;83;20192;-77
2020/12/15 02:38:39;;;;;;;;;;;;;;;-0.91;86.35;100392.34;1673601;86;20255;-78
2020/12/15 02:41:07;;;;;;;;;;;;;;;-0.91;86.43;100394.49;1673824;83;20568;-78
2020/12/15 02:43:36;;;;;;;;;;;;;;;-0.89;86.52;100394.34;1673198;86;20605;-78
2020/12/15 02:46:04;;;;;;;;;;;;;;;-0.90;86.51;100396.19;1644867;85;20187;-77
2020/12/15 02:48:32;;;;;;;;;;;;;;;-0.90;86.56;100401.56;1674401;85;20247;-77
2020/12/15 02:51:00;;;;;;;;;;;;;;;-0.89;86.52;100402.41;1674533;83;20184;-78
2020/12/15 02:53:46;;;;;;;;;;;;;;;-0.90;86.51;100393.50;1674400;86;20255;-78
2020/12/15 02:56:22;;;;;;;;;;;;;;;-0.89;86.53;100393.00;1651355;83;20182;-77
2020/12/15 02:58:50;;;;;;;;;;;;;;;-0.91;86.53;100391.81;1674450;85;20211;-78
2020/12/15 03:01:20;;;;;;;;;;;;;;;-0.92;86.45;100389.30;1674492;86;20176;-77
2020/12/15 03:03:49;;;;;;;;;;;;;;;-0.90;86.63;100390.81;1674864;83;20247;-78
2020/12/15 03:06:21;;;;;;;;;;;;;;;-0.90;86.60;100385.44;1658680;86;20538;-78
2020/12/15 03:08:49;;;;;;;;;;;;;;;-0.89;86.60;100383.09;1675685;83;20604;-78
2020/12/15 03:11:21;;;;;;;;;;;;;;;-0.88;86.63;100387.94;1682784;84;20217;-78
2020/12/15 03:13:50;;;;;;;;;;;;;;;-0.88;86.75;100384.75;1680598;83;20499;-78
2020/12/15 03:16:17;;;;;;;;;;;;;;;-0.87;86.59;100386.94;1674513;86;20259;-77
2020/12/15 03:18:45;;;;;;;;;;;;;;;-0.88;86.55;100391.97;1674885;83;20212;-78
2020/12/15 03:21:16;;;;;;;;;;;;;;;-0.90;86.63;100388.12;1674501;86;20525;-77
2020/12/15 03:23:43;;;;;;;;;;;;;;;-0.89;86.75;100391.66;1685969;83;20560;-78
2020/12/15 03:26:10;;;;;;;;;;;;;;;-0.88;86.60;100390.13;1704002;84;20189;-78
2020/12/15 03:28:38;;;;;;;;;;;;;;;-0.87;86.61;100389.63;1663339;85;20211;-78
2020/12/15 03:31:08;;;;;;;;;;;;;;;-0.86;86.59;100394.01;1674286;86;20183;-77
2020/12/15 03:33:38;;;;;;;;;;;;;;;-0.85;86.58;100396.51;1677675;83;20241;-78
2020/12/15 03:36:08;;;;;;;;;;;;;;;-0.89;86.58;100399.22;1702346;84;20574;-77
2020/12/15 03:38:37;;;;;;;;;;;;;;;-0.91;86.58;100397.19;1702471;82;20180;-77
2020/12/15 03:41:06;;;;;;;;;;;;;;;-0.93;86.65;100396.52;1717245;83;20212;-78
2020/12/15 03:43:35;;;;;;;;;;;;;;;-0.93;86.54;100399.20;1703007;84;20180;-78
2020/12/15 03:46:20;;;;;;;;;;;;;;;-0.92;86.63;100399.55;1674759;86;20482;-78
2020/12/15 03:48:50;;;;;;;;;;;;;;;-0.93;86.63;100401.89;1645449;86;20196;-76
2020/12/15 03:51:18;;;;;;;;;;;;;;;-0.93;86.69;100394.33;1725845;83;20251;-76
2020/12/15 03:53:56;;;;;;;;;;;;;;;-0.92;86.65;100387.97;1727234;83;20198;-79
2020/12/15 03:56:23;;;;;;;;;;;;;;;-0.92;86.70;100388.81;1710498;83;20216;-75
2020/12/15 03:58:51;;;;;;;;;;;;;;;-0.93;86.56;100383.09;1675176;86;20187;-78
2020/12/15 04:01:19;;;;;;;;;;;;;;;-0.93;86.73;100387.62;1696475;83;20240;-78
2020/12/15 04:03:49;;;;;;;;;;;;;;;-0.91;86.78;100389.66;1722699;83;20583;-79
2020/12/15 04:06:21;;;;;;;;;;;;;;;-0.90;86.84;100396.19;1676958;83;20213;-79
2020/12/15 04:08:50;;;;;;;;;;;;;;;-0.90;86.78;100389.47;1677688;84;20433;-80
2020/12/15 04:11:19;;;;;;;;;;;;;;;-0.91;86.86;100397.19;1691473;83;20487;-79
2020/12/15 04:13:49;;;;;;;;;;;;;;;-0.87;86.94;100401.22;1697220;84;20185;-79
2020/12/15 04:16:17;;;;;;;;;;;;;;;-0.85;86.88;100391.14;1677300;84;20192;-78
2020/12/15 04:18:59;;;;;;;;;;;;;;;-0.84;87.02;100402.73;1674778;84;20254;-77
2020/12/15 04:21:30;;;;;;;;;;;;;;;-0.79;87.10;100408.42;1663496;83;20160;-78
2020/12/15 04:24:00;;;;;;;;;;;;;;;-0.78;86.88;100412.27;1701067;84;20209;-80
2020/12/15 04:26:29;;;;;;;;;;;;;;;-0.80;86.73;100418.33;1697034;82;20332;-79
2020/12/15 04:28:58;;;;;;;;;;;;;;;-0.86;86.76;100410.94;1674782;86;20499;-78
2020/12/15 04:31:30;;;;;;;;;;;;;;;-0.89;86.88;100414.00;1676175;82;20206;-78
2020/12/15 04:34:01;;;;;;;;;;;;;;;-0.92;86.95;100413.48;1702842;83;20223;-79
2020/12/15 04:36:33;;;;;;;;;;;;;;;-0.95;86.99;100420.04;1702863;84;20192;-83
2020/12/15 04:39:01;;;;;;;;;;;;;;;-0.97;87.10;100423.91;1657181;84;20253;-83
2020/12/15 04:41:34;;;;;;;;;;;;;;;-0.98;87.12;100416.34;1708798;84;20274;-84
2020/12/15 04:44:02;;;;;;;;;;;;;;;-0.98;87.17;100423.56;1677966;83;20522;-77
2020/12/15 04:46:35;;;;;;;;;;;;;;;-0.97;87.23;100426.09;1674373;85;20179;-80
2020/12/15 04:49:07;;;;;;;;;;;;;;;-0.96;87.27;100428.28;1675399;83;20184;-80
2020/12/15 04:51:46;;;;;;;;;;;;;;;-0.97;87.27;100438.19;1674504;86;20769;-81
2020/12/15 04:54:15;;;;;;;;;;;;;;;-0.98;87.34;100430.27;1671556;83;20187;-84
2020/12/15 04:56:51;;;;;;;;;;;;;;;-0.99;87.38;100440.20;1686854;84;20269;-79
2020/12/15 04:59:20;;;;;;;;;;;;;;;-0.98;87.43;100450.42;1731672;81;20495;-79
2020/12/15 05:01:50;;;;;;;;;;;;;;;-0.98;87.52;100454.45;1714555;82;20181;-80
2020/12/15 05:04:20;;;;;;;;;;;;;;;-0.98;87.63;100449.08;1737826;81;20210;-78
2020/12/15 05:06:52;;;;;;;;;;;;;;;-0.96;87.66;100454.62;1713942;82;20439;-80
2020/12/15 05:09:30;;;;;;;;;;;;;;;-0.93;87.60;100456.12;1727474;81;20252;-81
2020/12/15 05:11:59;;;;;;;;;;;;;;;-0.91;87.56;100459.51;1720191;83;20180;-82
2020/12/15 05:14:28;;;;;;;;;;;;;;;-0.89;87.50;100459.67;1719829;81;20618;-82
2020/12/15 05:16:56;;;;;;;;;;;;;;;-0.89;87.46;100458.83;1711111;84;20184;-79
2020/12/15 05:19:29;;;;;;;;;;;;;;;-0.90;87.46;100460.67;1706041;81;20176;-79
2020/12/15 05:22:00;;;;;;;;;;;;;;;-0.91;87.37;100468.91;1683906;84;20227;-83
2020/12/15 05:24:30;;;;;;;;;;;;;;;-0.92;87.42;100476.12;1711354;81;20239;-81
2020/12/15 05:26:59;;;;;;;;;;;;;;;-0.92;87.49;100476.12;1740282;82;20186;-84
2020/12/15 05:29:28;;;;;;;;;;;;;;;-0.89;87.57;100483.01;1740422;82;20194;-82
2020/12/15 05:32:01;;;;;;;;;;;;;;;-0.91;87.49;100491.22;1708485;83;20608;-82
2020/12/15 05:34:31;;;;;;;;;;;;;;;-0.93;87.48;100487.86;1709423;84;20223;-79
2020/12/15 05:37:17;;;;;;;;;;;;;;;-0.92;87.55;100491.40;1711210;81;20188;-78
2020/12/15 05:40:03;;;;;;;;;;;;;;;-0.91;87.61;100495.25;1660521;84;20168;-78
2020/12/15 05:42:33;;;;;;;;;;;;;;;-0.88;87.58;100497.60;1706669;83;20213;-79
2020/12/15 05:45:01;;;;;;;;;;;;;;;-0.87;87.40;100491.23;1683999;84;20225;-80
2020/12/15 05:47:31;;;;;;;;;;;;;;;-0.87;87.41;100487.20;1710985;81;20487;-80
2020/12/15 05:50:01;;;;;;;;;;;;;;;-0.87;87.45;100494.41;1711204;84;20196;-79
2020/12/15 05:52:30;;;;;;;;;;;;;;;-0.90;87.45;100490.22;1710478;81;20582;-84
2020/12/15 05:55:05;;;;;;;;;;;;;;;-0.89;87.51;100499.97;1679638;85;20268;-84
2020/12/15 05:57:33;;;;;;;;;;;;;;;-0.88;87.59;100499.44;1679294;83;20229;-79
2020/12/15 06:00:10;;;;;;;;;;;;;;;-0.87;87.67;100497.95;1679630;84;20255;-78
2020/12/15 06:02:42;;;;;;;;;;;;;;;-0.86;87.58;100499.61;1707830;83;20184;-78
2020/12/15 06:05:10;;;;;;;;;;;;;;;-0.85;87.59;100497.77;1737358;83;20171;-78
2020/12/15 06:07:39;;;;;;;;;;;;;;;-0.84;87.61;100504.33;1723637;83;20261;-82
2020/12/15 06:10:06;;;;;;;;;;;;;;;-0.82;87.61;100505.50;1652137;84;20187;-82
2020/12/15 06:12:34;;;;;;;;;;;;;;;-0.80;87.70;100511.53;1684457;83;20507;-80
2020/12/15 06:15:03;;;;;;;;;;;;;;;-0.79;87.67;100512.73;1702997;84;20441;-79
2020/12/15 06:17:30;;;;;;;;;;;;;;;-0.76;87.67;100515.05;1700302;82;20445;-79
2020/12/15 06:20:00;;;;;;;;;;;;;;;-0.75;87.72;100515.39;1645967;87;20519;-80
2020/12/15 06:22:27;;;;;;;;;;;;;;;-0.72;87.72;100519.09;1674141;86;20646;-78
2020/12/15 06:24:59;;;;;;;;;;;;;;;-0.72;87.57;100518.25;1674051;83;20521;-77
2020/12/15 06:27:35;;;;;;;;;;;;;;;-0.74;87.45;100525.65;1674772;86;20184;-77
2020/12/15 06:30:04;;;;;;;;;;;;;;;-0.76;87.42;100520.42;1674261;83;20156;-78
2020/12/15 06:32:32;;;;;;;;;;;;;;;-0.78;87.41;100516.23;1645942;86;20614;-78
2020/12/15 06:35:06;;;;;;;;;;;;;;;-0.77;87.45;100520.11;1675212;83;20494;-77
2020/12/15 06:37:31;;;;;;;;;;;;;;;-0.78;87.27;100519.77;1674105;85;20191;-77
2020/12/15 06:40:01;;;;;;;;;;;;;;;-0.77;87.30;100522.80;1645667;85;20199;-77
2020/12/15 06:42:30;;;;;;;;;;;;;;;-0.76;87.16;100523.11;1674219;85;20187;-75
2020/12/15 06:45:07;;;;;;;;;;;;;;;-0.76;87.30;100520.42;1673809;83;20187;-77
2020/12/15 06:47:32;;;;;;;;;;;;;;;-0.73;87.39;100518.75;1674224;86;20215;-78
2020/12/15 06:50:13;;;;;;;;;;;;;;;-0.69;87.46;100517.42;1682998;83;20206;-78
2020/12/15 06:52:42;;;;;;;;;;;;;;;-0.67;87.29;100512.70;1700901;84;20260;-80
2020/12/15 06:55:10;;;;;;;;;;;;;;;-0.64;87.36;100516.91;1724830;81;20210;-80
2020/12/15 06:57:38;;;;;;;;;;;;;;;-0.60;87.16;100528.13;1715963;82;20231;-79
2020/12/15 07:00:10;;;;;;;;;;;;;;;-0.60;87.09;100531.67;1710244;81;20267;-79
2020/12/15 07:02:38;;;;;;;;;;;;;;;-0.60;87.04;100529.48;1710960;84;20519;-77
2020/12/15 07:05:26;;;;;;;;;;;;;;;-0.57;87.01;100533.17;1710004;81;20510;-78
2020/12/15 07:07:55;;;;;;;;;;;;;;;-0.56;86.96;100530.34;1710626;84;20312;-77
2020/12/15 07:10:27;;;;;;;;;;;;;;;-0.53;86.79;100532.66;1710676;81;20168;-79
2020/12/15 07:13:01;;;;;;;;;;;;;;;-0.54;86.59;100534.19;1730553;83;20265;-79
2020/12/15 07:15:29;;;;;;;;;;;;;;;-0.56;86.65;100532.18;1730482;83;20177;-77
2020/12/15 07:17:58;;;;;;;;;;;;;;;-0.57;86.69;100529.98;1738502;81;20213;-78
2020/12/15 07:20:26;;;;;;;;;;;;;;;-0.58;86.71;100528.83;1740229;82;20612;-77
2020/12/15 07:22:53;;;;;;;;;;;;;;;-0.57;86.81;100537.20;1715404;81;20173;-78
2020/12/15 07:25:21;;;;;;;;;;;;;;;-0.57;86.84;100538.05;1710825;84;20176;-75
2020/12/15 07:27:49;;;;;;;;;;;;;;;-0.56;86.84;100539.75;1710864;81;20257;-78
2020/12/15 07:30:18;;;;;;;;;;;;;;;-0.56;86.71;100542.93;1710720;83;20231;-78
2020/12/15 07:32:46;;;;;;;;;;;;;;;-0.57;86.86;100540.74;1698222;82;20488;-78
2020/12/15 07:35:19;;;;;;;;;;;;;;;-0.55;86.90;100539.22;1740316;82;20174;-77
2020/12/15 07:37:48;;;;;;;;;;;;;;;-0.54;86.82;100550.31;1727307;81;20196;-79
2020/12/15 07:40:17;;;;;;;;;;;;;;;-0.58;86.57;100544.96;1710834;84;20176;-80
2020/12/15 07:42:56;;;;;;;;;;;;;;;-0.63;86.67;100540.06;1710643;81;20244;-80
2020/12/15 07:45:25;;;;;;;;;;;;;;;-0.66;86.74;100537.74;1690791;83;20280;-78
2020/12/15 07:47:52;;;;;;;;;;;;;;;-0.65;86.86;100537.56;1679339;83;20199;-84
2020/12/15 07:50:28;;;;;;;;;;;;;;;-0.65;86.85;100538.91;1720935;83;20435;-81
2020/12/15 07:53:09;;;;;;;;;;;;;;;-0.63;86.91;100543.28;1731117;81;20740;-79
2020/12/15 07:55:37;;;;;;;;;;;;;;;-0.64;86.87;100538.41;1716336;84;20498;-78
2020/12/15 07:58:14;;;;;;;;;;;;;;;-0.65;86.79;100540.75;1715822;81;20188;-80
2020/12/15 08:00:42;;;;;;;;;;;;;;;-0.61;86.86;100539.91;1716195;84;20180;-81
2020/12/15 08:03:10;;;;;;;;;;;;;;;-0.59;86.83;100541.42;1715972;83;20187;-80
2020/12/15 08:05:38;;;;;;;;;;;;;;;-0.54;86.92;100535.03;1715561;81;20192;-78
2020/12/15 08:08:06;;;;;;;;;;;;;;;-0.47;87.00;100533.83;1716417;84;20183;-79
2020/12/15 08:10:35;;;;;;;;;;;;;;;-0.45;86.83;100527.77;1729952;81;20265;-81
2020/12/15 08:13:05;;;;;;;;;;;;;;;-0.45;86.65;100531.80;1716268;84;20212;-79
2020/12/15 08:15:37;;;;;;;;;;;;;;;-0.46;86.47;100529.65;1715968;81;20192;-80
2020/12/15 08:18:07;;;;;;;;;;;;;;;-0.43;86.63;100523.09;1716494;83;20200;-77
2020/12/15 08:20:35;;;;;;;;;;;;;;;-0.39;86.56;100527.09;1732748;81;20495;-77
2020/12/15 08:23:13;;;;;;;;;;;;;;;-0.39;86.46;100528.44;1745516;82;20205;-77
2020/12/15 08:25:44;;;;;;;;;;;;;;;-0.38;86.23;100523.41;1743846;81;20194;-78
2020/12/15 08:28:23;;;;;;;;;;;;;;;-0.37;86.18;100527.27;1745721;82;20190;-78
2020/12/15 08:30:55;;;;;;;;;;;;;;;-0.35;86.28;100524.39;1739280;81;20217;-80
2020/12/15 08:33:27;;;;;;;;;;;;;;;-0.31;86.24;100529.78;1704819;84;20257;-80
2020/12/15 08:35:57;;;;;;;;;;;;;;;-0.27;86.18;100531.09;1695764;83;20196;-83
2020/12/15 08:38:27;;;;;;;;;;;;;;;-0.27;85.92;100533.78;1674466;86;20195;-82
2020/12/15 08:40:58;;;;;;;;;;;;;;;-0.35;85.63;100529.27;1674141;83;20192;-77
2020/12/15 08:43:26;;;;;;;;;;;;;;;-0.35;85.93;100524.39;1674338;86;20225;-75
2020/12/15 08:45:55;;;;;;;;;;;;;;;-0.39;85.67;100531.13;1668531;83;20306;-77
2020/12/15 08:48:24;;;;;;;;;;;;;;;-0.40;85.89;100528.94;1670071;84;20283;-81
2020/12/15 08:50:51;;;;;;;;;;;;;;;-0.41;85.83;100526.44;1696511;84;20185;-77
2020/12/15 08:53:20;;;;;;;;;;;;;;;-0.41;86.01;100527.28;1740806;81;20153;-82
2020/12/15 08:55:48;;;;;;;;;;;;;;;-0.38;85.87;100522.88;1678148;82;20261;-75
2020/12/15 08:58:17;;;;;;;;;;;;;;;-0.40;85.71;100522.22;1710412;81;20470;-79
2020/12/15 09:00:46;;;;;;;;;;;;;;;-0.39;85.88;100519.88;1712218;81;20482;-77
2020/12/15 09:03:16;;;;;;;;;;;;;;;-0.36;85.63;100510.63;1715038;81;20190;-80
2020/12/15 09:05:56;;;;;;;;;;;;;;;-0.40;85.55;100514.66;1716063;81;20188;-76
2020/12/15 09:08:27;;;;;;;;;;;;;;;-0.49;85.79;100511.66;1714655;81;20207;-79
2020/12/15 09:10:57;;;;;;;;;;;;;;;-0.53;86.08;100503.09;1717761;81;20193;-79
2020/12/15 09:13:25;;;;;;;;;;;;;;;-0.54;86.34;100504.62;1718294;81;20570;-78
2020/12/15 09:15:54;;;;;;;;;;;;;;;-0.54;86.33;100504.62;1730326;83;20216;-77
2020/12/15 09:18:33;;;;;;;;;;;;;;;-0.55;86.25;100504.27;1722714;81;20185;-77
2020/12/15 09:21:09;;;;;;;;;;;;;;;-0.55;86.50;100503.77;1716350;81;20184;-77
2020/12/15 09:23:36;;;;;;;;;;;;;;;-0.50;86.50;100507.28;1719252;81;20188;-79
2020/12/15 09:26:04;;;;;;;;;;;;;;;-0.52;86.47;100507.97;1724318;81;20511;-79
2020/12/15 09:28:32;;;;;;;;;;;;;;;-0.51;86.64;100511.00;1722430;81;20203;-77
2020/12/15 09:31:01;;;;;;;;;;;;;;;-0.46;86.72;100505.95;1715505;82;20248;-77
2020/12/15 09:33:30;;;;;;;;;;;;;;;-0.39;86.77;100504.24;1717959;81;20494;-79
2020/12/15 09:35:58;;;;;;;;;;;;;;;-0.31;86.56;100498.84;1715799;81;20346;-75
2020/12/15 09:38:25;;;;;;;;;;;;;;;-0.24;86.31;100497.14;1719440;81;20170;-81
2020/12/15 09:40:53;;;;;;;;;;;;;;;-0.19;86.06;100498.30;1724088;81;20296;-78
2020/12/15 09:43:20;;;;;;;;;;;;;;;-0.13;85.54;100494.09;1719647;81;20185;-79
2020/12/15 09:45:50;;;;;;;;;;;;;;;-0.10;85.02;100491.02;1714802;81;20178;-78
2020/12/15 09:48:18;;;;;;;;;;;;;;;-0.07;84.80;100496.06;1721044;81;20240;-77
2020/12/15 09:50:46;;;;;;;;;;;;;;;-0.05;84.76;100496.22;1717013;81;20232;-76
2020/12/15 09:53:13;;;;;;;;;;;;;;;-0.03;84.77;100495.53;1716805;81;20246;-77
2020/12/15 09:55:41;;;;;;;;;;;;;;;-0.02;84.66;100494.53;1718047;81;20192;-77
2020/12/15 09:58:09;;;;;;;;;;;;;;;0.00;84.61;100493.84;1718659;81;20189;-79
2020/12/15 10:00:36;;;;;;;;;;;;;;;0.01;84.50;100492.00;1718099;81;20223;-77
2020/12/15 10:03:04;;;;;;;;;;;;;;;0.00;84.35;100499.22;1719321;83;20180;-77
2020/12/15 10:05:33;;;;;;;;;;;;;;;0.02;84.49;100500.41;1725428;81;20211;-77
2020/12/15 10:08:01;;;;;;;;;;;;;;;0.00;84.37;100495.72;1654554;85;20198;-76
2020/12/15 10:10:28;;;;;;;;;;;;;;;-0.04;84.62;100486.30;1652446;83;20244;-75
2020/12/15 10:12:56;;;;;;;;;;;;;;;-0.01;84.76;100490.84;1677715;85;20188;-74
2020/12/15 10:15:24;;;;;;;;;;;;;;;0.05;84.75;100499.22;1699700;83;20209;-77
2020/12/15 10:17:51;;;;;;;;;;;;;;;0.07;84.52;100497.19;1667639;83;20173;-78
2020/12/15 10:20:19;;;;;;;;;;;;;;;0.10;84.63;100495.00;1685006;84;20209;-77
2020/12/15 10:22:47;;;;;;;;;;;;;;;0.16;84.44;100492.94;1694557;83;20220;-77
2020/12/15 10:25:15;;;;;;;;;;;;;;;0.22;84.32;100495.44;1702851;84;20480;-76
2020/12/15 10:27:42;;;;;;;;;;;;;;;0.29;84.21;100495.05;1681098;83;20198;-76
2020/12/15 10:30:10;;;;;;;;;;;;;;;0.26;83.79;100491.36;1759184;81;20605;-77
2020/12/15 10:32:38;;;;;;;;;;;;;;;0.27;84.25;100489.86;1710639;81;20529;-78
2020/12/15 10:35:06;;;;;;;;;;;;;;;0.29;83.86;100496.40;1710998;84;20204;-80
2020/12/15 10:37:33;;;;;;;;;;;;;;;0.28;84.08;100496.90;1710583;81;20285;-79
2020/12/15 10:40:03;;;;;;;;;;;;;;;0.29;83.72;100498.59;1710708;84;20204;-79
2020/12/15 10:42:31;;;;;;;;;;;;;;;0.28;84.05;100500.12;1716099;81;20225;-77
2020/12/15 10:44:59;;;;;;;;;;;;;;;0.29;84.14;100497.24;1716001;81;20177;-79
2020/12/15 10:47:30;;;;;;;;;;;;;;;0.30;83.98;100499.44;1725565;81;20188;-86
2020/12/15 10:49:58;;;;;;;;;;;;;;;0.29;83.78;100498.59;1730968;81;20177;-89
2020/12/15 10:52:26;;;;;;;;;;;;;;;0.27;84.07;100501.97;1715534;81;20177;-82
2020/12/15 10:54:53;;;;;;;;;;;;;;;0.28;84.07;100499.59;1729885;81;20181;-86
2020/12/15 10:57:22;;;;;;;;;;;;;;;0.25;83.86;100492.39;1720283;81;20239;-75
2020/12/15 10:59:49;;;;;;;;;;;;;;;0.22;83.86;100497.63;1732187;81;20648;-78
2020/12/15 11:02:18;;;;;;;;;;;;;;;0.19;83.79;100499.31;1714545;81;20179;-79
2020/12/15 11:04:46;;;;;;;;;;;;;;;0.18;84.06;100499.50;1722166;81;20502;-80
2020/12/15 11:07:15;;;;;;;;;;;;;;;0.19;84.34;100504.70;1720831;81;20605;-82
2020/12/15 11:09:43;;;;;;;;;;;;;;;0.23;84.46;100496.59;1708912;82;20255;-79
2020/12/15 11:12:11;;;;;;;;;;;;;;;0.25;84.24;100497.28;1716167;81;20188;-78
2020/12/15 11:14:38;;;;;;;;;;;;;;;0.24;84.12;100498.78;1719498;81;20551;-77
2020/12/15 11:17:06;;;;;;;;;;;;;;;0.19;83.91;100503.86;1712976;83;20216;-78
2020/12/15 11:19:34;;;;;;;;;;;;;;;0.12;83.89;100495.66;1711583;81;20184;-77
2020/12/15 11:22:03;;;;;;;;;;;;;;;0.08;84.05;100497.00;1710817;84;20557;-77
2020/12/15 11:24:31;;;;;;;;;;;;;;;0.06;84.18;100499.03;1721365;81;20519;-76
2020/12/15 11:26:58;;;;;;;;;;;;;;;0.05;84.46;100504.11;1725427;81;20148;-84
2020/12/15 11:29:26;;;;;;;;;;;;;;;0.05;84.52;100504.11;1729644;81;20185;-79
2020/12/15 11:31:53;;;;;;;;;;;;;;;0.05;84.53;100505.45;1704089;83;20231;-80
2020/12/15 11:34:21;;;;;;;;;;;;;;;0.04;84.44;100512.33;1709726;83;20228;-85
2020/12/15 11:36:58;;;;;;;;;;;;;;;0.05;84.49;100502.77;1720952;81;20185;-79
2020/12/15 11:39:25;;;;;;;;;;;;;;;0.03;84.37;100500.73;1711576;82;20188;-75
2020/12/15 11:41:53;;;;;;;;;;;;;;;0.02;84.57;100502.26;1711965;81;20218;-84
2020/12/15 11:44:20;;;;;;;;;;;;;;;0.00;84.52;100506.48;1711146;83;20213;-82
2020/12/15 11:46:49;;;;;;;;;;;;;;;-0.01;84.75;100506.14;1741528;81;20414;-78
2020/12/15 11:49:18;;;;;;;;;;;;;;;0.04;84.79;100503.77;1734840;81;20189;-82
2020/12/15 11:51:45;;;;;;;;;;;;;;;0.06;84.92;100504.92;1712580;81;20268;-78
2020/12/15 11:54:15;;;;;;;;;;;;;;;0.07;84.96;100505.27;1722826;83;20197;-74
2020/12/15 11:56:49;;;;;;;;;;;;;;;0.11;85.07;100504.73;1714871;81;20223;-77
2020/12/15 11:59:20;;;;;;;;;;;;;;;0.13;85.06;100505.39;1725437;81;20517;-78
2020/12/15 12:01:47;;;;;;;;;;;;;;;0.13;84.81;100509.95;1710793;81;20219;-81
2020/12/15 12:04:16;;;;;;;;;;;;;;;0.11;84.72;100507.92;1680924;84;20517;-81
2020/12/15 12:06:44;;;;;;;;;;;;;;;0.09;84.99;100506.77;1685358;83;20299;-78
2020/12/15 12:09:12;;;;;;;;;;;;;;;0.08;84.91;100506.42;1699595;84;20189;-85
2020/12/15 12:11:40;;;;;;;;;;;;;;;0.08;85.09;100514.49;1701071;83;20186;-82
2020/12/15 12:14:08;;;;;;;;;;;;;;;0.10;85.16;100515.19;1722229;83;20193;-80
2020/12/15 12:16:36;;;;;;;;;;;;;;;0.09;85.07;100514.84;1691650;83;20237;-77
2020/12/15 12:19:03;;;;;;;;;;;;;;;0.05;85.05;100513.52;1694534;84;20503;-77
2020/12/15 12:21:34;;;;;;;;;;;;;;;0.06;85.29;100520.56;1697885;84;20158;-72
2020/12/15 12:24:02;;;;;;;;;;;;;;;0.07;85.28;100518.22;1679650;83;20219;-85
2020/12/15 12:26:31;;;;;;;;;;;;;;;0.10;85.41;100517.03;1690338;84;20190;-76
2020/12/15 12:28:59;;;;;;;;;;;;;;;0.11;85.28;100518.69;1682514;83;20177;-85
2020/12/15 12:31:26;;;;;;;;;;;;;;;0.12;85.34;100519.88;1677988;84;20187;-77
2020/12/15 12:33:54;;;;;;;;;;;;;;;0.13;85.21;100518.84;1716269;81;20574;-78
2020/12/15 12:36:21;;;;;;;;;;;;;;;0.13;85.13;100522.88;1744798;81;20193;-78
2020/12/15 12:38:49;;;;;;;;;;;;;;;0.13;85.02;100526.11;1724558;81;20252;-82
2020/12/15 12:41:17;;;;;;;;;;;;;;;0.09;85.17;100522.91;1726788;81;20737;-83
2020/12/15 12:43:44;;;;;;;;;;;;;;;0.09;85.32;100521.56;1696718;82;20188;-79
2020/12/15 12:46:15;;;;;;;;;;;;;;;0.12;85.33;100527.11;1720189;82;20215;-78
2020/12/15 12:48:43;;;;;;;;;;;;;;;0.12;85.32;100533.33;1717655;81;20227;-78
2020/12/15 12:51:11;;;;;;;;;;;;;;;0.10;85.31;100525.95;1660374;83;20572;-79